sensor_id;sensor_type;location;lat;lon;timestamp;temperature;humidity
22781;DHT22;11557;50.884;4.322;2022-12-19T00:01:19;4.70;99.90
22781;DHT22;11557;50.884;4.322;2022-12-19T00:03:47;5.00;99.90
22781;DHT22;11557;50.884;4.322;2022-12-19T00:06:13;4.40;99.90
22781;DHT22;11557;50.884;4.322;2022-12-19T00:08:40;4.90;99.90
22781;DHT22;11557;50.884;4.322;2022-12-19T00:11:08;5.10;99.90
22781;DHT22;11557;50.884;4.322;2022-12-19T00:13:34;5.20;99.90
22781;DHT22;11557;50.884;4.322;2022-12-19T00:16:02;5.30;99.90
22781;DHT22;11557;50.884;4.322;2022-12-19T00:18:28;5.80;99.90
22781;DHT22;11557;50.884;4.322;2022-12-19T00:21:03;5.00;99.90
22781;DHT22;11557;50.884;4.322;2022-12-19T00:23:31;4.80;99.90
22781;DHT22;11557;50.884;4.322;2022-12-19T00:26:12;4.90;99.90
22781;DHT22;11557;50.884;4.322;2022-12-19T00:28:38;4.70;99.90
22781;DHT22;11557;50.884;4.322;2022-12-19T00:31:04;5.00;99.90
22781;DHT22;11557;50.884;4.322;2022-12-19T00:33:30;4.90;99.90
22781;DHT22;11557;50.884;4.322;2022-12-19T00:35:57;5.10;99.90
22781;DHT22;11557;50.884;4.322;2022-12-19T00:38:23;4.80;99.90
22781;DHT22;11557;50.884;4.322;2022-12-19T00:40:49;5.50;99.90
22781;DHT22;11557;50.884;4.322;2022-12-19T00:43:14;5.60;99.90
22781;DHT22;11557;50.884;4.322;2022-12-19T00:45:40;5.00;99.90
22781;DHT22;11557;50.884;4.322;2022-12-19T00:48:06;5.00;99.90
22781;DHT22;11557;50.884;4.322;2022-12-19T00:50:31;5.00;99.90
22781;DHT22;11557;50.884;4.322;2022-12-19T00:52:57;5.40;99.90
22781;DHT22;11557;50.884;4.322;2022-12-19T00:55:22;6.40;99.90
22781;DHT22;11557;50.884;4.322;2022-12-19T00:57:49;5.10;99.90
22781;DHT22;11557;50.884;4.322;2022-12-19T01:00:15;5.80;99.90
22781;DHT22;11557;50.884;4.322;2022-12-19T01:02:41;5.10;99.90
22781;DHT22;11557;50.884;4.322;2022-12-19T01:05:07;5.20;99.90
22781;DHT22;11557;50.884;4.322;2022-12-19T01:07:34;5.20;99.90
22781;DHT22;11557;50.884;4.322;2022-12-19T01:09:59;5.80;99.90
22781;DHT22;11557;50.884;4.322;2022-12-19T01:12:25;6.10;99.90
22781;DHT22;11557;50.884;4.322;2022-12-19T01:15:09;5.40;99.90
22781;DHT22;11557;50.884;4.322;2022-12-19T01:17:35;5.80;99.90
22781;DHT22;11557;50.884;4.322;2022-12-19T01:20:01;5.40;99.90
22781;DHT22;11557;50.884;4.322;2022-12-19T01:22:26;5.40;99.90
22781;DHT22;11557;50.884;4.322;2022-12-19T01:24:52;6.00;99.90
22781;DHT22;11557;50.884;4.322;2022-12-19T01:27:17;6.20;99.90
22781;DHT22;11557;50.884;4.322;2022-12-19T01:29:43;6.20;99.90
22781;DHT22;11557;50.884;4.322;2022-12-19T01:32:09;6.80;99.90
22781;DHT22;11557;50.884;4.322;2022-12-19T01:34:34;6.70;99.90
22781;DHT22;11557;50.884;4.322;2022-12-19T01:37:00;6.40;99.90
22781;DHT22;11557;50.884;4.322;2022-12-19T01:39:26;6.50;99.90
22781;DHT22;11557;50.884;4.322;2022-12-19T01:41:52;6.00;99.90
22781;DHT22;11557;50.884;4.322;2022-12-19T01:44:17;6.90;99.90
22781;DHT22;11557;50.884;4.322;2022-12-19T01:46:46;6.00;99.90
22781;DHT22;11557;50.884;4.322;2022-12-19T01:49:25;6.40;99.90
22781;DHT22;11557;50.884;4.322;2022-12-19T01:51:55;6.20;99.90
22781;DHT22;11557;50.884;4.322;2022-12-19T01:54:25;6.60;99.90
22781;DHT22;11557;50.884;4.322;2022-12-19T01:56:55;6.20;99.90
22781;DHT22;11557;50.884;4.322;2022-12-19T01:59:27;6.20;99.90
22781;DHT22;11557;50.884;4.322;2022-12-19T02:01:58;6.20;99.90
22781;DHT22;11557;50.884;4.322;2022-12-19T02:04:26;7.00;99.90
22781;DHT22;11557;50.884;4.322;2022-12-19T02:06:54;7.00;99.90
22781;DHT22;11557;50.884;4.322;2022-12-19T02:09:20;6.70;99.90
22781;DHT22;11557;50.884;4.322;2022-12-19T02:11:46;7.00;99.90
22781;DHT22;11557;50.884;4.322;2022-12-19T02:14:11;7.10;99.90
22781;DHT22;11557;50.884;4.322;2022-12-19T02:16:50;7.10;99.90
22781;DHT22;11557;50.884;4.322;2022-12-19T02:19:43;6.60;99.90
22781;DHT22;11557;50.884;4.322;2022-12-19T02:22:29;6.60;99.90
22781;DHT22;11557;50.884;4.322;2022-12-19T02:28:15;6.60;99.90
22781;DHT22;11557;50.884;4.322;2022-12-19T02:35:54;6.60;99.90
22781;DHT22;11557;50.884;4.322;2022-12-19T02:41:13;6.60;99.90
22781;DHT22;11557;50.884;4.322;2022-12-19T02:43:45;7.70;99.90
22781;DHT22;11557;50.884;4.322;2022-12-19T02:46:12;6.70;99.90
22781;DHT22;11557;50.884;4.322;2022-12-19T02:48:40;6.80;99.90
22781;DHT22;11557;50.884;4.322;2022-12-19T02:51:06;7.50;99.90
22781;DHT22;11557;50.884;4.322;2022-12-19T02:53:32;6.70;99.90
22781;DHT22;11557;50.884;4.322;2022-12-19T03:01:40;6.60;99.90
22781;DHT22;11557;50.884;4.322;2022-12-19T03:07:12;6.70;99.90
22781;DHT22;11557;50.884;4.322;2022-12-19T03:12:30;6.80;99.90
22781;DHT22;11557;50.884;4.322;2022-12-19T03:14:59;6.70;99.90
22781;DHT22;11557;50.884;4.322;2022-12-19T03:17:26;6.80;99.90
22781;DHT22;11557;50.884;4.322;2022-12-19T03:19:52;6.70;99.90
22781;DHT22;11557;50.884;4.322;2022-12-19T03:22:17;6.80;99.90
22781;DHT22;11557;50.884;4.322;2022-12-19T03:24:43;6.80;99.90
22781;DHT22;11557;50.884;4.322;2022-12-19T03:27:24;6.90;99.90
22781;DHT22;11557;50.884;4.322;2022-12-19T03:29:55;7.10;99.90
22781;DHT22;11557;50.884;4.322;2022-12-19T03:32:26;6.90;99.90
22781;DHT22;11557;50.884;4.322;2022-12-19T03:34:58;7.40;99.90
22781;DHT22;11557;50.884;4.322;2022-12-19T03:37:27;6.90;99.90
22781;DHT22;11557;50.884;4.322;2022-12-19T03:39:59;7.30;99.90
22781;DHT22;11557;50.884;4.322;2022-12-19T03:42:26;8.00;99.90
22781;DHT22;11557;50.884;4.322;2022-12-19T03:45:14;7.10;99.90
22781;DHT22;11557;50.884;4.322;2022-12-19T03:47:46;7.10;99.90
22781;DHT22;11557;50.884;4.322;2022-12-19T03:50:13;8.00;99.90
22781;DHT22;11557;50.884;4.322;2022-12-19T03:55:50;7.20;99.90
22781;DHT22;11557;50.884;4.322;2022-12-19T03:58:18;7.20;99.90
22781;DHT22;11557;50.884;4.322;2022-12-19T04:00:46;7.30;99.90
22781;DHT22;11557;50.884;4.322;2022-12-19T04:03:17;7.70;99.90
22781;DHT22;11557;50.884;4.322;2022-12-19T04:05:44;7.30;99.90
22781;DHT22;11557;50.884;4.322;2022-12-19T04:08:11;7.40;99.90
22781;DHT22;11557;50.884;4.322;2022-12-19T04:10:43;7.30;99.90
22781;DHT22;11557;50.884;4.322;2022-12-19T04:13:18;8.30;99.90
22781;DHT22;11557;50.884;4.322;2022-12-19T04:18:29;7.30;99.90
22781;DHT22;11557;50.884;4.322;2022-12-19T04:21:11;7.40;99.90
22781;DHT22;11557;50.884;4.322;2022-12-19T04:23:42;7.40;99.90
22781;DHT22;11557;50.884;4.322;2022-12-19T04:26:15;8.00;99.90
22781;DHT22;11557;50.884;4.322;2022-12-19T04:28:50;8.40;99.90
22781;DHT22;11557;50.884;4.322;2022-12-19T04:31:17;7.50;99.90
22781;DHT22;11557;50.884;4.322;2022-12-19T04:33:44;8.30;99.90
22781;DHT22;11557;50.884;4.322;2022-12-19T04:36:10;8.20;99.90
22781;DHT22;11557;50.884;4.322;2022-12-19T04:38:36;7.90;99.90
22781;DHT22;11557;50.884;4.322;2022-12-19T04:41:01;7.60;99.90
22781;DHT22;11557;50.884;4.322;2022-12-19T04:43:27;7.70;99.90
22781;DHT22;11557;50.884;4.322;2022-12-19T04:45:53;8.30;99.90
22781;DHT22;11557;50.884;4.322;2022-12-19T04:48:18;8.40;99.90
22781;DHT22;11557;50.884;4.322;2022-12-19T04:50:44;7.70;99.90
22781;DHT22;11557;50.884;4.322;2022-12-19T04:53:10;8.20;99.90
22781;DHT22;11557;50.884;4.322;2022-12-19T04:55:35;8.00;99.90
22781;DHT22;11557;50.884;4.322;2022-12-19T04:58:03;7.50;99.90
22781;DHT22;11557;50.884;4.322;2022-12-19T05:00:29;7.60;99.90
22781;DHT22;11557;50.884;4.322;2022-12-19T05:02:55;7.60;99.90
22781;DHT22;11557;50.884;4.322;2022-12-19T05:05:20;8.10;99.90
22781;DHT22;11557;50.884;4.322;2022-12-19T05:07:46;8.00;99.90
22781;DHT22;11557;50.884;4.322;2022-12-19T05:10:12;7.80;99.90
22781;DHT22;11557;50.884;4.322;2022-12-19T05:12:37;7.70;99.90
22781;DHT22;11557;50.884;4.322;2022-12-19T05:15:06;8.30;99.90
22781;DHT22;11557;50.884;4.322;2022-12-19T05:17:32;7.70;99.90
22781;DHT22;11557;50.884;4.322;2022-12-19T05:19:58;8.10;99.90
22781;DHT22;11557;50.884;4.322;2022-12-19T05:22:23;7.70;99.90
22781;DHT22;11557;50.884;4.322;2022-12-19T05:24:49;7.90;99.90
22781;DHT22;11557;50.884;4.322;2022-12-19T05:27:15;7.80;99.90
22781;DHT22;11557;50.884;4.322;2022-12-19T05:29:40;8.10;99.90
22781;DHT22;11557;50.884;4.322;2022-12-19T05:32:06;7.80;99.90
22781;DHT22;11557;50.884;4.322;2022-12-19T05:34:32;7.80;99.90
22781;DHT22;11557;50.884;4.322;2022-12-19T05:36:57;8.00;99.90
22781;DHT22;11557;50.884;4.322;2022-12-19T05:39:23;7.80;99.90
22781;DHT22;11557;50.884;4.322;2022-12-19T05:41:50;9.20;99.90
22781;DHT22;11557;50.884;4.322;2022-12-19T05:44:16;8.30;99.90
22781;DHT22;11557;50.884;4.322;2022-12-19T05:46:41;7.80;99.90
22781;DHT22;11557;50.884;4.322;2022-12-19T05:49:07;8.10;99.90
22781;DHT22;11557;50.884;4.322;2022-12-19T05:51:33;7.90;99.90
22781;DHT22;11557;50.884;4.322;2022-12-19T05:54:02;8.30;99.90
22781;DHT22;11557;50.884;4.322;2022-12-19T05:56:28;7.90;99.90
22781;DHT22;11557;50.884;4.322;2022-12-19T05:58:53;7.90;99.90
22781;DHT22;11557;50.884;4.322;2022-12-19T06:01:23;8.00;99.90
22781;DHT22;11557;50.884;4.322;2022-12-19T06:03:50;9.10;99.90
22781;DHT22;11557;50.884;4.322;2022-12-19T06:06:18;8.80;99.90
22781;DHT22;11557;50.884;4.322;2022-12-19T06:08:44;7.90;99.90
22781;DHT22;11557;50.884;4.322;2022-12-19T06:11:11;8.90;99.90
22781;DHT22;11557;50.884;4.322;2022-12-19T06:13:37;9.00;99.90
22781;DHT22;11557;50.884;4.322;2022-12-19T06:16:06;8.40;99.90
22781;DHT22;11557;50.884;4.322;2022-12-19T06:18:32;8.00;99.90
22781;DHT22;11557;50.884;4.322;2022-12-19T06:21:02;8.00;99.90
22781;DHT22;11557;50.884;4.322;2022-12-19T06:23:29;8.60;99.90
22781;DHT22;11557;50.884;4.322;2022-12-19T06:25:59;8.00;99.90
22781;DHT22;11557;50.884;4.322;2022-12-19T06:28:27;8.80;99.90
22781;DHT22;11557;50.884;4.322;2022-12-19T06:31:01;8.60;99.90
22781;DHT22;11557;50.884;4.322;2022-12-19T06:33:29;8.10;99.90
22781;DHT22;11557;50.884;4.322;2022-12-19T06:35:59;8.60;99.90
22781;DHT22;11557;50.884;4.322;2022-12-19T06:38:26;8.20;99.90
22781;DHT22;11557;50.884;4.322;2022-12-19T06:40:52;8.20;99.90
22781;DHT22;11557;50.884;4.322;2022-12-19T06:43:36;8.20;99.90
22781;DHT22;11557;50.884;4.322;2022-12-19T06:46:01;8.60;99.90
22781;DHT22;11557;50.884;4.322;2022-12-19T06:48:27;8.20;99.90
22781;DHT22;11557;50.884;4.322;2022-12-19T06:50:53;8.90;99.90
22781;DHT22;11557;50.884;4.322;2022-12-19T06:53:19;8.20;99.90
22781;DHT22;11557;50.884;4.322;2022-12-19T06:55:45;9.00;99.90
22781;DHT22;11557;50.884;4.322;2022-12-19T06:58:10;8.10;99.90
22781;DHT22;11557;50.884;4.322;2022-12-19T07:00:36;8.10;99.90
22781;DHT22;11557;50.884;4.322;2022-12-19T07:03:04;8.40;99.90
22781;DHT22;11557;50.884;4.322;2022-12-19T07:05:32;8.40;99.90
22781;DHT22;11557;50.884;4.322;2022-12-19T07:07:58;8.80;99.90
22781;DHT22;11557;50.884;4.322;2022-12-19T07:10:23;8.60;99.90
22781;DHT22;11557;50.884;4.322;2022-12-19T07:12:49;9.10;99.90
22781;DHT22;11557;50.884;4.322;2022-12-19T07:15:15;8.70;99.90
22781;DHT22;11557;50.884;4.322;2022-12-19T07:17:41;8.50;99.90
22781;DHT22;11557;50.884;4.322;2022-12-19T07:20:08;8.40;99.90
22781;DHT22;11557;50.884;4.322;2022-12-19T07:22:35;8.50;99.90
22781;DHT22;11557;50.884;4.322;2022-12-19T07:25:02;8.90;99.90
22781;DHT22;11557;50.884;4.322;2022-12-19T07:27:28;8.50;99.90
22781;DHT22;11557;50.884;4.322;2022-12-19T07:29:54;9.80;99.90
22781;DHT22;11557;50.884;4.322;2022-12-19T07:32:20;9.00;99.90
22781;DHT22;11557;50.884;4.322;2022-12-19T07:34:46;8.30;99.90
22781;DHT22;11557;50.884;4.322;2022-12-19T07:37:11;8.70;99.90
22781;DHT22;11557;50.884;4.322;2022-12-19T07:39:37;9.20;99.90
22781;DHT22;11557;50.884;4.322;2022-12-19T07:42:03;8.30;99.90
22781;DHT22;11557;50.884;4.322;2022-12-19T07:44:29;8.40;99.90
22781;DHT22;11557;50.884;4.322;2022-12-19T07:46:54;9.40;99.90
22781;DHT22;11557;50.884;4.322;2022-12-19T07:49:20;8.50;99.90
22781;DHT22;11557;50.884;4.322;2022-12-19T07:51:46;9.20;99.90
22781;DHT22;11557;50.884;4.322;2022-12-19T07:54:12;9.10;99.90
22781;DHT22;11557;50.884;4.322;2022-12-19T07:56:37;8.50;99.90
22781;DHT22;11557;50.884;4.322;2022-12-19T07:59:03;8.90;99.90
22781;DHT22;11557;50.884;4.322;2022-12-19T08:01:28;8.70;99.90
22781;DHT22;11557;50.884;4.322;2022-12-19T08:03:54;8.90;99.90
22781;DHT22;11557;50.884;4.322;2022-12-19T08:06:20;9.20;99.90
22781;DHT22;11557;50.884;4.322;2022-12-19T08:08:46;8.70;99.90
22781;DHT22;11557;50.884;4.322;2022-12-19T08:11:14;8.80;99.90
22781;DHT22;11557;50.884;4.322;2022-12-19T08:13:42;9.10;99.90
22781;DHT22;11557;50.884;4.322;2022-12-19T08:16:08;8.80;99.90
22781;DHT22;11557;50.884;4.322;2022-12-19T08:18:34;8.90;99.90
22781;DHT22;11557;50.884;4.322;2022-12-19T08:21:00;9.20;99.90
22781;DHT22;11557;50.884;4.322;2022-12-19T08:23:26;8.70;99.90
22781;DHT22;11557;50.884;4.322;2022-12-19T08:25:59;8.80;99.90
22781;DHT22;11557;50.884;4.322;2022-12-19T08:28:25;9.40;99.90
22781;DHT22;11557;50.884;4.322;2022-12-19T08:30:51;10.10;99.90
22781;DHT22;11557;50.884;4.322;2022-12-19T08:33:17;9.00;99.90
22781;DHT22;11557;50.884;4.322;2022-12-19T08:35:43;9.00;99.90
22781;DHT22;11557;50.884;4.322;2022-12-19T08:38:09;9.00;99.90
22781;DHT22;11557;50.884;4.322;2022-12-19T08:40:34;9.10;99.90
22781;DHT22;11557;50.884;4.322;2022-12-19T08:43:00;9.70;99.90
22781;DHT22;11557;50.884;4.322;2022-12-19T08:45:26;9.10;99.90
22781;DHT22;11557;50.884;4.322;2022-12-19T08:47:52;9.00;99.90
22781;DHT22;11557;50.884;4.322;2022-12-19T08:50:18;9.80;99.90
22781;DHT22;11557;50.884;4.322;2022-12-19T08:52:44;9.50;99.90
22781;DHT22;11557;50.884;4.322;2022-12-19T08:55:10;10.10;99.90
22781;DHT22;11557;50.884;4.322;2022-12-19T08:57:36;9.10;99.90
22781;DHT22;11557;50.884;4.322;2022-12-19T09:00:03;9.60;99.90
22781;DHT22;11557;50.884;4.322;2022-12-19T09:02:29;9.20;99.90
22781;DHT22;11557;50.884;4.322;2022-12-19T09:04:55;9.20;99.90
22781;DHT22;11557;50.884;4.322;2022-12-19T09:07:21;9.30;99.90
22781;DHT22;11557;50.884;4.322;2022-12-19T09:09:47;9.30;99.90
22781;DHT22;11557;50.884;4.322;2022-12-19T09:12:14;9.40;99.90
22781;DHT22;11557;50.884;4.322;2022-12-19T09:14:40;9.30;99.90
22781;DHT22;11557;50.884;4.322;2022-12-19T09:17:06;9.90;99.90
22781;DHT22;11557;50.884;4.322;2022-12-19T09:19:32;9.30;99.90
22781;DHT22;11557;50.884;4.322;2022-12-19T09:21:57;9.20;99.90
22781;DHT22;11557;50.884;4.322;2022-12-19T09:24:23;9.30;99.90
22781;DHT22;11557;50.884;4.322;2022-12-19T09:26:49;9.20;99.90
22781;DHT22;11557;50.884;4.322;2022-12-19T09:29:14;9.20;99.90
22781;DHT22;11557;50.884;4.322;2022-12-19T09:31:40;9.20;99.90
22781;DHT22;11557;50.884;4.322;2022-12-19T09:34:06;10.30;99.90
22781;DHT22;11557;50.884;4.322;2022-12-19T09:36:31;9.00;99.90
22781;DHT22;11557;50.884;4.322;2022-12-19T09:38:57;9.00;99.90
22781;DHT22;11557;50.884;4.322;2022-12-19T09:47:26;9.20;99.90
22781;DHT22;11557;50.884;4.322;2022-12-19T09:49:53;9.10;99.90
22781;DHT22;11557;50.884;4.322;2022-12-19T09:58:05;9.00;99.90
22781;DHT22;11557;50.884;4.322;2022-12-19T10:00:44;9.10;99.90
22781;DHT22;11557;50.884;4.322;2022-12-19T10:03:28;9.10;99.90
22781;DHT22;11557;50.884;4.322;2022-12-19T10:06:06;9.20;99.90
22781;DHT22;11557;50.884;4.322;2022-12-19T10:08:38;9.20;99.90
22781;DHT22;11557;50.884;4.322;2022-12-19T10:28:06;9.40;99.90
22781;DHT22;11557;50.884;4.322;2022-12-19T10:30:38;9.30;99.90
22781;DHT22;11557;50.884;4.322;2022-12-19T10:33:27;9.40;99.90
22781;DHT22;11557;50.884;4.322;2022-12-19T10:35:58;10.00;99.90
22781;DHT22;11557;50.884;4.322;2022-12-19T10:38:30;9.50;99.90
22781;DHT22;11557;50.884;4.322;2022-12-19T10:41:20;9.60;99.90
22781;DHT22;11557;50.884;4.322;2022-12-19T10:44:01;9.60;99.90
22781;DHT22;11557;50.884;4.322;2022-12-19T10:49:23;9.70;99.90
22781;DHT22;11557;50.884;4.322;2022-12-19T10:51:58;9.80;99.90
22781;DHT22;11557;50.884;4.322;2022-12-19T10:54:46;9.80;99.90
22781;DHT22;11557;50.884;4.322;2022-12-19T10:57:22;10.10;99.90
22781;DHT22;11557;50.884;4.322;2022-12-19T11:00:14;10.00;99.90
22781;DHT22;11557;50.884;4.322;2022-12-19T11:02:43;10.10;99.90
22781;DHT22;11557;50.884;4.322;2022-12-19T11:05:48;10.10;99.90
22781;DHT22;11557;50.884;4.322;2022-12-19T11:08:18;10.20;99.90
22781;DHT22;11557;50.884;4.322;2022-12-19T11:10:51;10.30;99.90
22781;DHT22;11557;50.884;4.322;2022-12-19T11:15:52;10.30;99.90
22781;DHT22;11557;50.884;4.322;2022-12-19T11:18:18;11.10;99.90
22781;DHT22;11557;50.884;4.322;2022-12-19T11:20:59;10.40;99.90
22781;DHT22;11557;50.884;4.322;2022-12-19T11:23:27;10.40;99.90
22781;DHT22;11557;50.884;4.322;2022-12-19T11:25:58;10.60;99.90
22781;DHT22;11557;50.884;4.322;2022-12-19T11:28:31;10.50;99.90
22781;DHT22;11557;50.884;4.322;2022-12-19T11:33:30;10.60;99.90
22781;DHT22;11557;50.884;4.322;2022-12-19T11:35:57;10.80;99.90
22781;DHT22;11557;50.884;4.322;2022-12-19T11:38:49;10.70;99.90
22781;DHT22;11557;50.884;4.322;2022-12-19T11:41:26;10.80;99.90
22781;DHT22;11557;50.884;4.322;2022-12-19T11:44:08;10.80;99.90
22781;DHT22;11557;50.884;4.322;2022-12-19T11:46:51;10.80;99.90
22781;DHT22;11557;50.884;4.322;2022-12-19T11:49:25;10.80;99.90
22781;DHT22;11557;50.884;4.322;2022-12-19T11:52:02;10.80;99.90
22781;DHT22;11557;50.884;4.322;2022-12-19T11:54:38;10.90;99.90
22781;DHT22;11557;50.884;4.322;2022-12-19T11:57:10;10.90;99.90
22781;DHT22;11557;50.884;4.322;2022-12-19T11:59:39;10.90;99.90
22781;DHT22;11557;50.884;4.322;2022-12-19T12:07:35;10.80;99.90
22781;DHT22;11557;50.884;4.322;2022-12-19T12:24:12;11.00;99.90
22781;DHT22;11557;50.884;4.322;2022-12-19T12:29:36;10.90;99.90
22781;DHT22;11557;50.884;4.322;2022-12-19T12:35:37;11.00;99.90
22781;DHT22;11557;50.884;4.322;2022-12-19T12:46:22;11.10;99.90
22781;DHT22;11557;50.884;4.322;2022-12-19T12:49:02;11.00;99.90
22781;DHT22;11557;50.884;4.322;2022-12-19T12:51:29;11.10;99.90
22781;DHT22;11557;50.884;4.322;2022-12-19T12:54:02;11.00;99.90
22781;DHT22;11557;50.884;4.322;2022-12-19T12:56:32;11.00;99.90
22781;DHT22;11557;50.884;4.322;2022-12-19T13:01:52;10.90;99.90
22781;DHT22;11557;50.884;4.322;2022-12-19T13:04:34;10.90;99.90
22781;DHT22;11557;50.884;4.322;2022-12-19T13:07:38;10.90;99.90
22781;DHT22;11557;50.884;4.322;2022-12-19T13:10:16;10.90;99.90
22781;DHT22;11557;50.884;4.322;2022-12-19T13:12:55;10.90;99.90
22781;DHT22;11557;50.884;4.322;2022-12-19T13:22:45;11.50;99.90
22781;DHT22;11557;50.884;4.322;2022-12-19T13:33:46;10.90;99.90
22781;DHT22;11557;50.884;4.322;2022-12-19T13:36:44;11.10;99.90
22781;DHT22;11557;50.884;4.322;2022-12-19T13:39:33;11.00;99.90
22781;DHT22;11557;50.884;4.322;2022-12-19T13:42:20;11.00;99.90
22781;DHT22;11557;50.884;4.322;2022-12-19T13:45:27;11.00;99.90
22781;DHT22;11557;50.884;4.322;2022-12-19T13:47:56;11.00;99.90
22781;DHT22;11557;50.884;4.322;2022-12-19T13:50:35;11.00;99.90
22781;DHT22;11557;50.884;4.322;2022-12-19T13:53:07;11.10;99.90
22781;DHT22;11557;50.884;4.322;2022-12-19T13:55:33;11.00;99.90
22781;DHT22;11557;50.884;4.322;2022-12-19T13:58:03;11.10;99.90
22781;DHT22;11557;50.884;4.322;2022-12-19T14:00:41;11.10;99.90
22781;DHT22;11557;50.884;4.322;2022-12-19T14:03:19;11.20;99.90
22781;DHT22;11557;50.884;4.322;2022-12-19T14:05:45;11.10;99.90
22781;DHT22;11557;50.884;4.322;2022-12-19T14:08:18;11.60;99.90
22781;DHT22;11557;50.884;4.322;2022-12-19T14:10:46;11.20;99.90
22781;DHT22;11557;50.884;4.322;2022-12-19T14:13:17;11.10;99.90
22781;DHT22;11557;50.884;4.322;2022-12-19T14:16:02;11.30;99.90
22781;DHT22;11557;50.884;4.322;2022-12-19T14:18:30;11.00;99.90
22781;DHT22;11557;50.884;4.322;2022-12-19T14:21:19;11.00;99.90
22781;DHT22;11557;50.884;4.322;2022-12-19T14:23:46;11.10;99.90
22781;DHT22;11557;50.884;4.322;2022-12-19T14:26:26;11.00;99.90
22781;DHT22;11557;50.884;4.322;2022-12-19T14:29:05;10.90;99.90
22781;DHT22;11557;50.884;4.322;2022-12-19T14:31:35;10.90;99.90
22781;DHT22;11557;50.884;4.322;2022-12-19T14:34:01;11.00;99.90
22781;DHT22;11557;50.884;4.322;2022-12-19T14:36:31;11.00;99.90
22781;DHT22;11557;50.884;4.322;2022-12-19T14:38:58;11.00;99.90
22781;DHT22;11557;50.884;4.322;2022-12-19T14:44:15;11.00;99.90
22781;DHT22;11557;50.884;4.322;2022-12-19T14:46:42;10.90;99.90
22781;DHT22;11557;50.884;4.322;2022-12-19T14:49:26;10.90;99.90
22781;DHT22;11557;50.884;4.322;2022-12-19T14:51:55;10.90;99.90
22781;DHT22;11557;50.884;4.322;2022-12-19T14:54:22;10.80;99.90
22781;DHT22;11557;50.884;4.322;2022-12-19T15:04:37;10.80;99.90
22781;DHT22;11557;50.884;4.322;2022-12-19T15:07:23;10.80;99.90
22781;DHT22;11557;50.884;4.322;2022-12-19T15:12:28;10.90;99.90
22781;DHT22;11557;50.884;4.322;2022-12-19T15:15:21;10.90;99.90
22781;DHT22;11557;50.884;4.322;2022-12-19T15:17:50;10.90;99.90
22781;DHT22;11557;50.884;4.322;2022-12-19T15:20:16;10.90;99.90
22781;DHT22;11557;50.884;4.322;2022-12-19T15:22:42;10.90;99.90
22781;DHT22;11557;50.884;4.322;2022-12-19T15:25:13;10.80;99.90
22781;DHT22;11557;50.884;4.322;2022-12-19T15:27:41;10.90;99.90
22781;DHT22;11557;50.884;4.322;2022-12-19T15:30:18;10.90;99.90
22781;DHT22;11557;50.884;4.322;2022-12-19T15:32:45;11.00;99.90
22781;DHT22;11557;50.884;4.322;2022-12-19T15:35:16;11.00;99.90
22781;DHT22;11557;50.884;4.322;2022-12-19T15:37:42;11.00;99.90
22781;DHT22;11557;50.884;4.322;2022-12-19T15:40:13;11.00;99.90
22781;DHT22;11557;50.884;4.322;2022-12-19T15:42:41;10.90;99.90
22781;DHT22;11557;50.884;4.322;2022-12-19T15:45:15;10.90;99.90
22781;DHT22;11557;50.884;4.322;2022-12-19T15:47:41;10.90;99.90
22781;DHT22;11557;50.884;4.322;2022-12-19T15:50:21;11.30;99.90
22781;DHT22;11557;50.884;4.322;2022-12-19T15:52:47;11.00;99.90
22781;DHT22;11557;50.884;4.322;2022-12-19T15:55:15;10.90;99.90
22781;DHT22;11557;50.884;4.322;2022-12-19T15:57:54;10.90;99.90
22781;DHT22;11557;50.884;4.322;2022-12-19T16:00:23;10.90;99.90
22781;DHT22;11557;50.884;4.322;2022-12-19T16:02:51;10.90;99.90
22781;DHT22;11557;50.884;4.322;2022-12-19T16:05:20;10.90;99.90
22781;DHT22;11557;50.884;4.322;2022-12-19T16:07:46;10.90;99.90
22781;DHT22;11557;50.884;4.322;2022-12-19T16:10:13;10.90;99.90
22781;DHT22;11557;50.884;4.322;2022-12-19T16:12:53;10.90;99.90
22781;DHT22;11557;50.884;4.322;2022-12-19T16:17:48;10.90;99.90
22781;DHT22;11557;50.884;4.322;2022-12-19T16:20:19;11.00;99.90
22781;DHT22;11557;50.884;4.322;2022-12-19T16:22:45;10.80;99.90
22781;DHT22;11557;50.884;4.322;2022-12-19T16:25:12;11.00;99.90
22781;DHT22;11557;50.884;4.322;2022-12-19T16:27:38;11.00;99.90
22781;DHT22;11557;50.884;4.322;2022-12-19T16:30:20;11.00;99.90
22781;DHT22;11557;50.884;4.322;2022-12-19T16:32:47;10.90;99.90
22781;DHT22;11557;50.884;4.322;2022-12-19T16:35:19;10.90;99.90
22781;DHT22;11557;50.884;4.322;2022-12-19T16:37:46;10.90;99.90
22781;DHT22;11557;50.884;4.322;2022-12-19T16:40:16;11.00;99.90
22781;DHT22;11557;50.884;4.322;2022-12-19T16:42:43;10.90;99.90
22781;DHT22;11557;50.884;4.322;2022-12-19T16:45:23;11.00;99.90
22781;DHT22;11557;50.884;4.322;2022-12-19T16:47:50;10.90;99.90
22781;DHT22;11557;50.884;4.322;2022-12-19T16:52:44;11.00;99.90
22781;DHT22;11557;50.884;4.322;2022-12-19T16:55:11;11.00;99.90
22781;DHT22;11557;50.884;4.322;2022-12-19T16:57:37;11.00;99.90
22781;DHT22;11557;50.884;4.322;2022-12-19T17:00:04;11.20;99.90
22781;DHT22;11557;50.884;4.322;2022-12-19T17:05:23;11.20;99.90
22781;DHT22;11557;50.884;4.322;2022-12-19T17:07:50;11.40;99.90
22781;DHT22;11557;50.884;4.322;2022-12-19T17:10:17;11.00;99.90
22781;DHT22;11557;50.884;4.322;2022-12-19T17:12:44;11.10;99.90
22781;DHT22;11557;50.884;4.322;2022-12-19T17:15:36;11.00;99.90
22781;DHT22;11557;50.884;4.322;2022-12-19T17:18:09;11.10;99.90
22781;DHT22;11557;50.884;4.322;2022-12-19T17:20:41;11.80;99.90
22781;DHT22;11557;50.884;4.322;2022-12-19T17:23:19;11.10;99.90
22781;DHT22;11557;50.884;4.322;2022-12-19T17:25:46;11.20;99.90
22781;DHT22;11557;50.884;4.322;2022-12-19T17:28:13;11.30;99.90
22781;DHT22;11557;50.884;4.322;2022-12-19T17:30:40;11.20;99.90
22781;DHT22;11557;50.884;4.322;2022-12-19T17:33:06;11.30;99.90
22781;DHT22;11557;50.884;4.322;2022-12-19T17:35:35;11.30;99.90
22781;DHT22;11557;50.884;4.322;2022-12-19T17:38:02;11.30;99.90
22781;DHT22;11557;50.884;4.322;2022-12-19T17:40:30;11.30;99.90
22781;DHT22;11557;50.884;4.322;2022-12-19T17:42:57;11.30;99.90
22781;DHT22;11557;50.884;4.322;2022-12-19T17:45:24;11.30;99.90
22781;DHT22;11557;50.884;4.322;2022-12-19T17:47:51;11.40;99.90
22781;DHT22;11557;50.884;4.322;2022-12-19T17:50:25;11.40;99.90
22781;DHT22;11557;50.884;4.322;2022-12-19T17:52:53;11.40;99.90
22781;DHT22;11557;50.884;4.322;2022-12-19T17:55:22;11.40;99.90
22781;DHT22;11557;50.884;4.322;2022-12-19T17:57:48;11.40;99.90
22781;DHT22;11557;50.884;4.322;2022-12-19T18:00:16;11.40;99.90
22781;DHT22;11557;50.884;4.322;2022-12-19T18:02:43;11.40;99.90
22781;DHT22;11557;50.884;4.322;2022-12-19T18:05:20;11.40;99.90
22781;DHT22;11557;50.884;4.322;2022-12-19T18:07:50;11.50;99.90
22781;DHT22;11557;50.884;4.322;2022-12-19T18:10:25;11.30;99.90
22781;DHT22;11557;50.884;4.322;2022-12-19T18:12:52;11.30;99.90
22781;DHT22;11557;50.884;4.322;2022-12-19T18:15:19;11.20;99.90